sensor_id;sensor_type;location;lat;lon;timestamp;pressure;altitude;pressure_sealevel;temperature;humidity
19751;BME280;4663;49.120;9.730;2023-01-16T00:00:14;96919.78;;;-1.00;85.39
19751;BME280;4663;49.120;9.730;2023-01-16T00:02:40;96917.41;;;-1.03;84.08
19751;BME280;4663;49.120;9.730;2023-01-16T00:05:06;96910.56;;;-1.05;85.67
19751;BME280;4663;49.120;9.730;2023-01-16T00:07:31;96912.09;;;-1.03;85.07
19751;BME280;4663;49.120;9.730;2023-01-16T00:09:57;96913.91;;;-1.13;85.54
19751;BME280;4663;49.120;9.730;2023-01-16T00:12:22;96907.13;;;-0.96;84.23
19751;BME280;4663;49.120;9.730;2023-01-16T00:14:47;96898.59;;;-0.90;84.06
19751;BME280;4663;49.120;9.730;2023-01-16T00:17:12;96900.84;;;-0.95;84.38
19751;BME280;4663;49.120;9.730;2023-01-16T00:19:38;96897.59;;;-0.99;82.84
19751;BME280;4663;49.120;9.730;2023-01-16T00:22:03;96886.75;;;-0.96;83.43
19751;BME280;4663;49.120;9.730;2023-01-16T00:24:29;96875.00;;;-1.03;83.08
19751;BME280;4663;49.120;9.730;2023-01-16T00:26:54;96879.47;;;-1.13;84.69
19751;BME280;4663;49.120;9.730;2023-01-16T00:29:19;96861.50;;;-1.00;82.35
19751;BME280;4663;49.120;9.730;2023-01-16T00:31:45;96867.50;;;-0.88;81.51
19751;BME280;4663;49.120;9.730;2023-01-16T00:34:10;96868.03;;;-0.84;82.82
19751;BME280;4663;49.120;9.730;2023-01-16T00:36:36;96863.03;;;-0.97;81.78
19751;BME280;4663;49.120;9.730;2023-01-16T00:39:03;96863.31;;;-0.81;82.38
19751;BME280;4663;49.120;9.730;2023-01-16T00:41:29;96857.41;;;-1.04;84.10
19751;BME280;4663;49.120;9.730;2023-01-16T00:43:54;96856.03;;;-1.08;84.83
19751;BME280;4663;49.120;9.730;2023-01-16T00:46:21;96845.75;;;-0.91;85.71
19751;BME280;4663;49.120;9.730;2023-01-16T00:48:47;96849.09;;;-0.89;84.59
19751;BME280;4663;49.120;9.730;2023-01-16T00:51:12;96844.06;;;-0.83;83.46
19751;BME280;4663;49.120;9.730;2023-01-16T00:53:37;96835.28;;;-0.83;82.92
19751;BME280;4663;49.120;9.730;2023-01-16T00:56:03;96828.72;;;-0.79;82.16
19751;BME280;4663;49.120;9.730;2023-01-16T00:58:29;96821.19;;;-0.84;81.88
19751;BME280;4663;49.120;9.730;2023-01-16T01:00:54;96826.84;;;-0.69;82.65
19751;BME280;4663;49.120;9.730;2023-01-16T01:03:19;96828.28;;;-0.84;83.57
19751;BME280;4663;49.120;9.730;2023-01-16T01:05:45;96819.78;;;-0.88;84.44
19751;BME280;4663;49.120;9.730;2023-01-16T01:08:10;96822.56;;;-0.79;84.29
19751;BME280;4663;49.120;9.730;2023-01-16T01:10:37;96805.28;;;-0.94;82.35
19751;BME280;4663;49.120;9.730;2023-01-16T01:13:03;96802.34;;;-0.81;82.62
19751;BME280;4663;49.120;9.730;2023-01-16T01:15:28;96797.59;;;-0.77;83.43
19751;BME280;4663;49.120;9.730;2023-01-16T01:17:53;96802.50;;;-0.92;84.87
19751;BME280;4663;49.120;9.730;2023-01-16T01:20:19;96798.84;;;-0.81;82.99
19751;BME280;4663;49.120;9.730;2023-01-16T01:22:45;96785.31;;;-0.78;81.46
19751;BME280;4663;49.120;9.730;2023-01-16T01:25:11;96789.38;;;-0.84;80.64
19751;BME280;4663;49.120;9.730;2023-01-16T01:27:36;96792.97;;;-0.65;83.36
19751;BME280;4663;49.120;9.730;2023-01-16T01:30:02;96788.97;;;-0.79;83.42
19751;BME280;4663;49.120;9.730;2023-01-16T01:32:28;96787.00;;;-0.87;83.67
19751;BME280;4663;49.120;9.730;2023-01-16T01:34:53;96776.66;;;-0.80;83.65
19751;BME280;4663;49.120;9.730;2023-01-16T01:37:18;96765.09;;;-0.79;84.10
19751;BME280;4663;49.120;9.730;2023-01-16T01:39:44;96760.66;;;-0.88;84.19
19751;BME280;4663;49.120;9.730;2023-01-16T01:42:10;96752.13;;;-0.82;84.02
19751;BME280;4663;49.120;9.730;2023-01-16T01:44:57;96737.78;;;-0.89;82.99
19751;BME280;4663;49.120;9.730;2023-01-16T01:47:32;96731.66;;;-1.00;82.95
19751;BME280;4663;49.120;9.730;2023-01-16T01:50:03;96744.50;;;-0.95;83.33
19751;BME280;4663;49.120;9.730;2023-01-16T01:52:29;96735.00;;;-0.98;83.05
19751;BME280;4663;49.120;9.730;2023-01-16T01:55:00;96729.69;;;-0.98;82.89
19751;BME280;4663;49.120;9.730;2023-01-16T01:57:29;96726.78;;;-0.95;83.69
19751;BME280;4663;49.120;9.730;2023-01-16T02:00:00;96722.19;;;-1.12;83.60
19751;BME280;4663;49.120;9.730;2023-01-16T02:02:32;96714.94;;;-1.10;83.16
19751;BME280;4663;49.120;9.730;2023-01-16T02:04:59;96714.09;;;-1.11;83.87
19751;BME280;4663;49.120;9.730;2023-01-16T02:07:27;96709.53;;;-1.18;84.64
19751;BME280;4663;49.120;9.730;2023-01-16T02:10:20;96710.63;;;-1.11;84.43
19751;BME280;4663;49.120;9.730;2023-01-16T02:12:40;96691.69;;;-1.26;83.06
19751;BME280;4663;49.120;9.730;2023-01-16T02:15:06;96692.94;;;-1.21;84.06
19751;BME280;4663;49.120;9.730;2023-01-16T02:17:32;96684.59;;;-1.26;84.36
19751;BME280;4663;49.120;9.730;2023-01-16T02:20:22;96675.94;;;-1.28;84.30
19751;BME280;4663;49.120;9.730;2023-01-16T02:23:37;96687.69;;;-1.60;85.49
19751;BME280;4663;49.120;9.730;2023-01-16T02:45:04;96600.38;;;-1.80;85.07
19751;BME280;4663;49.120;9.730;2023-01-16T02:47:50;96595.53;;;-1.85;84.31
19751;BME280;4663;49.120;9.730;2023-01-16T02:50:27;96588.88;;;-1.89;85.01
19751;BME280;4663;49.120;9.730;2023-01-16T02:53:02;96581.19;;;-1.92;84.61
19751;BME280;4663;49.120;9.730;2023-01-16T02:55:41;96579.22;;;-1.90;84.99
19751;BME280;4663;49.120;9.730;2023-01-16T02:58:09;96572.19;;;-2.29;86.15
19751;BME280;4663;49.120;9.730;2023-01-16T03:00:36;96560.75;;;-2.19;86.07
19751;BME280;4663;49.120;9.730;2023-01-16T03:03:02;96551.56;;;-2.15;86.41
19751;BME280;4663;49.120;9.730;2023-01-16T03:05:33;96540.94;;;-1.95;84.14
19751;BME280;4663;49.120;9.730;2023-01-16T03:26:24;96486.28;;;-2.05;83.68
19751;BME280;4663;49.120;9.730;2023-01-16T03:31:55;96482.88;;;-2.55;85.13
19751;BME280;4663;49.120;9.730;2023-01-16T03:37:00;96474.25;;;-2.57;84.77
19751;BME280;4663;49.120;9.730;2023-01-16T03:39:31;96461.28;;;-2.40;84.05
19751;BME280;4663;49.120;9.730;2023-01-16T03:42:02;96469.81;;;-2.56;85.06
19751;BME280;4663;49.120;9.730;2023-01-16T03:44:33;96461.28;;;-2.50;85.07
19751;BME280;4663;49.120;9.730;2023-01-16T03:47:00;96451.84;;;-2.53;85.97
19751;BME280;4663;49.120;9.730;2023-01-16T03:49:31;96439.59;;;-2.54;85.97
19751;BME280;4663;49.120;9.730;2023-01-16T03:52:02;96441.81;;;-2.49;86.55
19751;BME280;4663;49.120;9.730;2023-01-16T03:59:45;96417.22;;;-2.50;85.93
19751;BME280;4663;49.120;9.730;2023-01-16T04:02:16;96415.69;;;-2.52;85.97
19751;BME280;4663;49.120;9.730;2023-01-16T04:07:18;96414.97;;;-2.54;85.51
19751;BME280;4663;49.120;9.730;2023-01-16T04:09:55;96399.38;;;-2.47;86.20
19751;BME280;4663;49.120;9.730;2023-01-16T04:12:25;96402.13;;;-2.39;85.91
19751;BME280;4663;49.120;9.730;2023-01-16T04:14:59;96397.72;;;-2.49;86.94
19751;BME280;4663;49.120;9.730;2023-01-16T04:17:26;96387.94;;;-2.28;86.07
19751;BME280;4663;49.120;9.730;2023-01-16T04:19:52;96372.19;;;-2.20;85.96
19751;BME280;4663;49.120;9.730;2023-01-16T04:22:23;96368.19;;;-2.34;85.84
19751;BME280;4663;49.120;9.730;2023-01-16T04:24:49;96360.94;;;-2.32;86.24
19751;BME280;4663;49.120;9.730;2023-01-16T04:27:17;96353.19;;;-2.43;85.81
19751;BME280;4663;49.120;9.730;2023-01-16T04:29:42;96352.41;;;-2.54;85.64
19751;BME280;4663;49.120;9.730;2023-01-16T04:32:08;96342.34;;;-2.50;84.71
19751;BME280;4663;49.120;9.730;2023-01-16T04:34:33;96343.50;;;-2.63;85.39
19751;BME280;4663;49.120;9.730;2023-01-16T04:36:59;96337.69;;;-2.66;86.90
19751;BME280;4663;49.120;9.730;2023-01-16T04:39:24;96336.97;;;-2.58;87.26
19751;BME280;4663;49.120;9.730;2023-01-16T04:41:49;96328.72;;;-2.45;87.13
19751;BME280;4663;49.120;9.730;2023-01-16T04:44:16;96308.06;;;-2.32;86.65
19751;BME280;4663;49.120;9.730;2023-01-16T04:46:42;96308.13;;;-2.52;86.00
19751;BME280;4663;49.120;9.730;2023-01-16T04:49:07;96293.63;;;-2.38;85.30
19751;BME280;4663;49.120;9.730;2023-01-16T04:51:34;96289.69;;;-2.71;85.72
19751;BME280;4663;49.120;9.730;2023-01-16T04:54:00;96294.75;;;-2.88;86.03
19751;BME280;4663;49.120;9.730;2023-01-16T04:56:25;96277.94;;;-2.87;85.79
19751;BME280;4663;49.120;9.730;2023-01-16T04:58:50;96274.50;;;-2.97;86.00
19751;BME280;4663;49.120;9.730;2023-01-16T05:01:18;96271.44;;;-3.03;86.29
19751;BME280;4663;49.120;9.730;2023-01-16T05:03:43;96266.00;;;-3.01;85.12
19751;BME280;4663;49.120;9.730;2023-01-16T05:06:09;96259.22;;;-3.04;86.18
19751;BME280;4663;49.120;9.730;2023-01-16T05:08:34;96264.13;;;-3.19;86.79
19751;BME280;4663;49.120;9.730;2023-01-16T05:10:59;96249.91;;;-3.08;85.76
19751;BME280;4663;49.120;9.730;2023-01-16T05:13:29;96248.16;;;-3.27;87.46
19751;BME280;4663;49.120;9.730;2023-01-16T05:15:55;96234.09;;;-3.28;87.47
19751;BME280;4663;49.120;9.730;2023-01-16T05:18:22;96236.63;;;-3.36;88.54
19751;BME280;4663;49.120;9.730;2023-01-16T05:20:47;96235.09;;;-3.29;87.92
19751;BME280;4663;49.120;9.730;2023-01-16T05:23:13;96223.00;;;-3.31;87.30
19751;BME280;4663;49.120;9.730;2023-01-16T05:25:38;96221.34;;;-3.22;87.30
19751;BME280;4663;49.120;9.730;2023-01-16T05:28:04;96204.91;;;-3.16;86.86
19751;BME280;4663;49.120;9.730;2023-01-16T05:30:30;96194.63;;;-3.19;86.40
19751;BME280;4663;49.120;9.730;2023-01-16T05:32:55;96187.94;;;-3.14;86.93
19751;BME280;4663;49.120;9.730;2023-01-16T05:35:21;96184.06;;;-3.19;86.26
19751;BME280;4663;49.120;9.730;2023-01-16T05:37:46;96171.56;;;-3.17;86.44
19751;BME280;4663;49.120;9.730;2023-01-16T05:40:12;96165.75;;;-3.31;86.54
19751;BME280;4663;49.120;9.730;2023-01-16T05:42:38;96153.34;;;-3.10;86.16
19751;BME280;4663;49.120;9.730;2023-01-16T05:45:03;96152.69;;;-3.22;86.42
19751;BME280;4663;49.120;9.730;2023-01-16T05:47:29;96151.56;;;-3.20;86.61
19751;BME280;4663;49.120;9.730;2023-01-16T05:49:54;96135.69;;;-3.10;85.68
19751;BME280;4663;49.120;9.730;2023-01-16T05:52:26;96123.91;;;-2.88;84.36
19751;BME280;4663;49.120;9.730;2023-01-16T05:54:52;96118.97;;;-3.01;85.32
19751;BME280;4663;49.120;9.730;2023-01-16T05:57:18;96114.63;;;-2.92;85.79
19751;BME280;4663;49.120;9.730;2023-01-16T05:59:47;96119.84;;;-3.10;85.71
19751;BME280;4663;49.120;9.730;2023-01-16T06:02:12;96102.69;;;-2.96;85.36
19751;BME280;4663;49.120;9.730;2023-01-16T06:04:38;96086.44;;;-3.01;84.69
19751;BME280;4663;49.120;9.730;2023-01-16T06:07:03;96094.34;;;-3.29;85.89
19751;BME280;4663;49.120;9.730;2023-01-16T06:09:29;96088.81;;;-3.36;86.24
19751;BME280;4663;49.120;9.730;2023-01-16T06:11:54;96082.13;;;-3.30;86.48
19751;BME280;4663;49.120;9.730;2023-01-16T06:14:19;96072.41;;;-3.30;86.17
19751;BME280;4663;49.120;9.730;2023-01-16T06:16:45;96069.75;;;-3.58;87.37
19751;BME280;4663;49.120;9.730;2023-01-16T06:19:10;96065.63;;;-3.32;86.69
19751;BME280;4663;49.120;9.730;2023-01-16T06:21:35;96053.94;;;-3.30;86.58
19751;BME280;4663;49.120;9.730;2023-01-16T06:24:01;96052.75;;;-3.45;87.24
19751;BME280;4663;49.120;9.730;2023-01-16T06:26:26;96055.75;;;-3.68;88.06
19751;BME280;4663;49.120;9.730;2023-01-16T06:28:51;96045.09;;;-3.86;87.59
19751;BME280;4663;49.120;9.730;2023-01-16T06:31:17;96034.75;;;-3.60;86.85
19751;BME280;4663;49.120;9.730;2023-01-16T06:33:42;96022.59;;;-3.43;86.31
19751;BME280;4663;49.120;9.730;2023-01-16T06:36:08;96011.81;;;-3.49;85.93
19751;BME280;4663;49.120;9.730;2023-01-16T06:38:33;96013.75;;;-3.99;87.65
19751;BME280;4663;49.120;9.730;2023-01-16T06:40:58;96005.69;;;-3.88;87.11
19751;BME280;4663;49.120;9.730;2023-01-16T06:43:25;96001.63;;;-3.72;87.12
19751;BME280;4663;49.120;9.730;2023-01-16T06:45:51;95986.34;;;-3.79;86.30
19751;BME280;4663;49.120;9.730;2023-01-16T06:48:17;95981.31;;;-3.62;85.82
19751;BME280;4663;49.120;9.730;2023-01-16T06:50:43;95972.00;;;-4.04;86.61
19751;BME280;4663;49.120;9.730;2023-01-16T06:53:08;95964.25;;;-3.68;86.57
19751;BME280;4663;49.120;9.730;2023-01-16T06:55:33;95962.28;;;-3.66;87.09
19751;BME280;4663;49.120;9.730;2023-01-16T06:57:59;95957.31;;;-3.69;86.55
19751;BME280;4663;49.120;9.730;2023-01-16T07:00:24;95948.47;;;-3.78;86.41
19751;BME280;4663;49.120;9.730;2023-01-16T07:02:52;95946.88;;;-3.98;87.46
19751;BME280;4663;49.120;9.730;2023-01-16T07:05:20;95945.13;;;-3.80;87.29
19751;BME280;4663;49.120;9.730;2023-01-16T07:07:46;95932.84;;;-3.89;87.47
19751;BME280;4663;49.120;9.730;2023-01-16T07:10:11;95935.66;;;-3.72;87.55
19751;BME280;4663;49.120;9.730;2023-01-16T07:12:37;95917.69;;;-3.59;86.29
19751;BME280;4663;49.120;9.730;2023-01-16T07:15:02;95915.09;;;-3.69;86.42
19751;BME280;4663;49.120;9.730;2023-01-16T07:17:46;95919.88;;;-3.54;86.89
19751;BME280;4663;49.120;9.730;2023-01-16T07:20:30;95916.31;;;-3.63;87.21
19751;BME280;4663;49.120;9.730;2023-01-16T07:23:19;95916.47;;;-3.65;87.61
19751;BME280;4663;49.120;9.730;2023-01-16T07:25:48;95909.81;;;-3.69;88.07
19751;BME280;4663;49.120;9.730;2023-01-16T07:28:16;95909.00;;;-3.69;88.59
19751;BME280;4663;49.120;9.730;2023-01-16T07:30:43;95901.75;;;-3.67;88.50
19751;BME280;4663;49.120;9.730;2023-01-16T07:33:09;95903.88;;;-3.71;88.95
19751;BME280;4663;49.120;9.730;2023-01-16T07:35:35;95902.97;;;-3.61;88.28
19751;BME280;4663;49.120;9.730;2023-01-16T07:38:00;95894.31;;;-3.72;88.03
19751;BME280;4663;49.120;9.730;2023-01-16T07:40:25;95890.28;;;-3.48;88.06
19751;BME280;4663;49.120;9.730;2023-01-16T07:42:51;95885.69;;;-3.28;86.97
19751;BME280;4663;49.120;9.730;2023-01-16T07:45:16;95882.38;;;-3.30;87.02
19751;BME280;4663;49.120;9.730;2023-01-16T07:47:42;95879.06;;;-3.32;87.39
19751;BME280;4663;49.120;9.730;2023-01-16T07:50:07;95872.25;;;-3.16;86.69
19751;BME280;4663;49.120;9.730;2023-01-16T07:52:33;95859.75;;;-3.14;86.03
19751;BME280;4663;49.120;9.730;2023-01-16T07:54:58;95858.53;;;-3.02;85.86
19751;BME280;4663;49.120;9.730;2023-01-16T07:57:24;95855.84;;;-3.10;86.12
19751;BME280;4663;49.120;9.730;2023-01-16T07:59:52;95863.75;;;-3.10;86.66
19751;BME280;4663;49.120;9.730;2023-01-16T08:02:18;95853.56;;;-3.05;86.76
19751;BME280;4663;49.120;9.730;2023-01-16T08:04:43;95847.91;;;-3.10;87.04
19751;BME280;4663;49.120;9.730;2023-01-16T08:07:09;95848.34;;;-2.96;86.97
19751;BME280;4663;49.120;9.730;2023-01-16T08:09:34;95833.94;;;-3.02;86.42
19751;BME280;4663;49.120;9.730;2023-01-16T08:11:59;95825.91;;;-2.92;86.28
19751;BME280;4663;49.120;9.730;2023-01-16T08:14:25;95825.72;;;-3.17;86.72
19751;BME280;4663;49.120;9.730;2023-01-16T08:16:50;95814.59;;;-3.03;86.17
19751;BME280;4663;49.120;9.730;2023-01-16T08:19:15;95810.22;;;-2.67;84.80
19751;BME280;4663;49.120;9.730;2023-01-16T08:21:41;95814.00;;;-2.70;85.26
19751;BME280;4663;49.120;9.730;2023-01-16T08:24:06;95806.03;;;-2.52;86.10
19751;BME280;4663;49.120;9.730;2023-01-16T08:26:32;95805.75;;;-2.40;84.96
19751;BME280;4663;49.120;9.730;2023-01-16T08:28:58;95799.56;;;-2.57;85.64
19751;BME280;4663;49.120;9.730;2023-01-16T08:31:25;95794.81;;;-2.54;86.27
19751;BME280;4663;49.120;9.730;2023-01-16T08:33:50;95792.16;;;-2.54;86.79
19751;BME280;4663;49.120;9.730;2023-01-16T08:36:16;95786.75;;;-2.44;86.32
19751;BME280;4663;49.120;9.730;2023-01-16T08:38:45;95779.34;;;-2.32;86.48
19751;BME280;4663;49.120;9.730;2023-01-16T08:41:10;95770.66;;;-2.24;86.79
19751;BME280;4663;49.120;9.730;2023-01-16T08:43:55;95758.19;;;-2.40;85.66
19751;BME280;4663;49.120;9.730;2023-01-16T08:46:39;95765.81;;;-2.29;86.53
19751;BME280;4663;49.120;9.730;2023-01-16T08:49:23;95749.50;;;-2.24;85.10
19751;BME280;4663;49.120;9.730;2023-01-16T08:52:08;95745.75;;;-2.05;84.32
19751;BME280;4663;49.120;9.730;2023-01-16T08:54:33;95746.09;;;-2.00;84.18
19751;BME280;4663;49.120;9.730;2023-01-16T08:56:59;95741.03;;;-1.76;83.50
19751;BME280;4663;49.120;9.730;2023-01-16T08:59:24;95741.69;;;-1.66;84.01
19751;BME280;4663;49.120;9.730;2023-01-16T09:01:49;95747.31;;;-1.69;83.24
19751;BME280;4663;49.120;9.730;2023-01-16T09:04:15;95748.81;;;-1.58;83.62
19751;BME280;4663;49.120;9.730;2023-01-16T09:06:40;95736.56;;;-1.59;83.17
19751;BME280;4663;49.120;9.730;2023-01-16T09:09:06;95746.00;;;-1.48;84.09
19751;BME280;4663;49.120;9.730;2023-01-16T09:11:35;95731.94;;;-1.40;83.16
19751;BME280;4663;49.120;9.730;2023-01-16T09:14:19;95724.50;;;-1.37;83.33
19751;BME280;4663;49.120;9.730;2023-01-16T09:16:45;95727.78;;;-1.68;84.17
19751;BME280;4663;49.120;9.730;2023-01-16T09:19:11;95720.38;;;-1.39;84.22
19751;BME280;4663;49.120;9.730;2023-01-16T09:21:36;95729.28;;;-1.49;86.77
19751;BME280;4663;49.120;9.730;2023-01-16T09:24:01;95714.56;;;-1.10;85.63
19751;BME280;4663;49.120;9.730;2023-01-16T09:26:28;95718.19;;;-0.86;84.70
19751;BME280;4663;49.120;9.730;2023-01-16T09:28:53;95711.72;;;-0.91;83.09
19751;BME280;4663;49.120;9.730;2023-01-16T09:31:19;95711.72;;;-0.83;82.37
19751;BME280;4663;49.120;9.730;2023-01-16T09:33:44;95694.06;;;-0.59;79.85
19751;BME280;4663;49.120;9.730;2023-01-16T09:36:12;95693.56;;;-0.63;76.88
19751;BME280;4663;49.120;9.730;2023-01-16T09:38:37;95697.50;;;-0.50;78.00
19751;BME280;4663;49.120;9.730;2023-01-16T09:41:03;95707.63;;;-0.54;81.14
19751;BME280;4663;49.120;9.730;2023-01-16T09:43:39;95693.50;;;-0.86;81.10
19751;BME280;4663;49.120;9.730;2023-01-16T09:48:47;95701.72;;;-0.73;82.64
19751;BME280;4663;49.120;9.730;2023-01-16T09:51:19;95698.13;;;-0.40;83.83
19751;BME280;4663;49.120;9.730;2023-01-16T09:53:58;95670.78;;;-0.40;78.77
19751;BME280;4663;49.120;9.730;2023-01-16T09:56:47;95661.47;;;-0.05;79.34
19751;BME280;4663;49.120;9.730;2023-01-16T09:59:38;95668.31;;;-0.10;79.45
19751;BME280;4663;49.120;9.730;2023-01-16T10:04:42;95682.75;;;0.11;79.61
19751;BME280;4663;49.120;9.730;2023-01-16T10:12:31;95677.00;;;-0.25;76.46
19751;BME280;4663;49.120;9.730;2023-01-16T10:17:54;95643.41;;;-0.09;74.02
19751;BME280;4663;49.120;9.730;2023-01-16T10:20:39;95641.91;;;-0.04;74.10
19751;BME280;4663;49.120;9.730;2023-01-16T10:26:40;95634.03;;;0.03;74.49
19751;BME280;4663;49.120;9.730;2023-01-16T10:29:38;95587.31;;;0.02;71.67
19751;BME280;4663;49.120;9.730;2023-01-16T10:32:11;95596.78;;;0.20;72.82
19751;BME280;4663;49.120;9.730;2023-01-16T10:37:13;95591.88;;;0.47;73.63
19751;BME280;4663;49.120;9.730;2023-01-16T10:39:38;95573.69;;;0.44;72.23
19751;BME280;4663;49.120;9.730;2023-01-16T10:42:11;95562.88;;;0.45;72.28
19751;BME280;4663;49.120;9.730;2023-01-16T10:47:42;95552.59;;;0.27;71.74
19751;BME280;4663;49.120;9.730;2023-01-16T10:50:26;95560.53;;;0.27;73.45
19751;BME280;4663;49.120;9.730;2023-01-16T10:52:52;95532.00;;;0.44;71.52
19751;BME280;4663;49.120;9.730;2023-01-16T10:55:18;95546.41;;;0.50;72.93
19751;BME280;4663;49.120;9.730;2023-01-16T10:57:50;95520.84;;;0.49;71.56
19751;BME280;4663;49.120;9.730;2023-01-16T11:00:26;95519.84;;;0.50;71.71
19751;BME280;4663;49.120;9.730;2023-01-16T11:03:00;95503.38;;;0.40;69.22
19751;BME280;4663;49.120;9.730;2023-01-16T11:05:32;95524.06;;;0.44;71.77
19751;BME280;4663;49.120;9.730;2023-01-16T11:08:18;95520.31;;;0.54;70.35
19751;BME280;4663;49.120;9.730;2023-01-16T11:10:48;95527.81;;;0.50;71.13
19751;BME280;4663;49.120;9.730;2023-01-16T11:13:19;95513.69;;;0.34;69.19
19751;BME280;4663;49.120;9.730;2023-01-16T11:18:48;95533.94;;;0.35;71.36
19751;BME280;4663;49.120;9.730;2023-01-16T11:21:22;95501.03;;;0.06;69.53
19751;BME280;4663;49.120;9.730;2023-01-16T11:24:00;95479.00;;;0.06;67.13
19751;BME280;4663;49.120;9.730;2023-01-16T11:26:27;95477.66;;;0.25;67.21
19751;BME280;4663;49.120;9.730;2023-01-16T11:28:53;95492.94;;;0.38;68.44
19751;BME280;4663;49.120;9.730;2023-01-16T11:31:23;95499.53;;;0.42;69.13
19751;BME280;4663;49.120;9.730;2023-01-16T11:33:54;95494.41;;;0.26;69.35
19751;BME280;4663;49.120;9.730;2023-01-16T11:36:24;95509.84;;;0.37;70.83
19751;BME280;4663;49.120;9.730;2023-01-16T11:38:50;95502.00;;;0.44;71.82
19751;BME280;4663;49.120;9.730;2023-01-16T11:41:27;95478.13;;;0.44;70.03
19751;BME280;4663;49.120;9.730;2023-01-16T11:47:17;95480.03;;;0.50;73.17
19751;BME280;4663;49.120;9.730;2023-01-16T11:49:51;95461.78;;;0.47;72.61
19751;BME280;4663;49.120;9.730;2023-01-16T11:52:22;95456.31;;;0.48;73.18
19751;BME280;4663;49.120;9.730;2023-01-16T11:54:58;95442.59;;;0.45;72.53
19751;BME280;4663;49.120;9.730;2023-01-16T12:08:21;95400.56;;;0.64;71.06
19751;BME280;4663;49.120;9.730;2023-01-16T12:13:27;95374.06;;;0.70;68.91
19751;BME280;4663;49.120;9.730;2023-01-16T12:16:21;95381.44;;;0.75;69.45
19751;BME280;4663;49.120;9.730;2023-01-16T12:21:46;95365.00;;;0.65;70.36
19751;BME280;4663;49.120;9.730;2023-01-16T12:26:53;95342.44;;;0.54;69.06
19751;BME280;4663;49.120;9.730;2023-01-16T12:29:35;95348.25;;;0.64;68.79
19751;BME280;4663;49.120;9.730;2023-01-16T12:32:07;95341.00;;;0.36;70.05
19751;BME280;4663;49.120;9.730;2023-01-16T12:37:23;95326.44;;;0.69;70.76
19751;BME280;4663;49.120;9.730;2023-01-16T12:43:28;95311.06;;;0.64;70.95
19751;BME280;4663;49.120;9.730;2023-01-16T12:46:03;95305.56;;;0.44;71.05
19751;BME280;4663;49.120;9.730;2023-01-16T12:49:01;95300.41;;;0.79;72.10
19751;BME280;4663;49.120;9.730;2023-01-16T12:54:27;95265.47;;;0.82;71.23
19751;BME280;4663;49.120;9.730;2023-01-16T12:59:39;95243.47;;;0.89;70.30
19751;BME280;4663;49.120;9.730;2023-01-16T13:04:44;95242.63;;;0.88;71.29
19751;BME280;4663;49.120;9.730;2023-01-16T13:07:15;95239.94;;;0.81;71.96
19751;BME280;4663;49.120;9.730;2023-01-16T13:09:49;95229.28;;;1.03;72.13
19751;BME280;4663;49.120;9.730;2023-01-16T13:12:23;95224.34;;;1.00;72.88
19751;BME280;4663;49.120;9.730;2023-01-16T13:15:21;95217.88;;;1.09;71.49
19751;BME280;4663;49.120;9.730;2023-01-16T13:17:52;95225.84;;;1.09;72.64
19751;BME280;4663;49.120;9.730;2023-01-16T13:20:22;95213.03;;;1.20;71.86
19751;BME280;4663;49.120;9.730;2023-01-16T13:22:57;95199.72;;;1.13;71.87
19751;BME280;4663;49.120;9.730;2023-01-16T13:25:33;95180.69;;;1.16;71.43
19751;BME280;4663;49.120;9.730;2023-01-16T13:28:06;95173.03;;;1.28;71.73
19751;BME280;4663;49.120;9.730;2023-01-16T13:30:32;95168.56;;;1.35;71.42
19751;BME280;4663;49.120;9.730;2023-01-16T13:33:04;95169.56;;;1.34;71.58
19751;BME280;4663;49.120;9.730;2023-01-16T13:41:45;95160.72;;;1.62;72.78
19751;BME280;4663;49.120;9.730;2023-01-16T13:47:12;95156.63;;;1.60;71.62
19751;BME280;4663;49.120;9.730;2023-01-16T13:49:39;95159.97;;;1.82;72.10
19751;BME280;4663;49.120;9.730;2023-01-16T13:52:16;95155.09;;;1.86;73.48
19751;BME280;4663;49.120;9.730;2023-01-16T13:54:44;95131.53;;;1.83;71.49
19751;BME280;4663;49.120;9.730;2023-01-16T13:57:17;95147.09;;;1.79;72.55
19751;BME280;4663;49.120;9.730;2023-01-16T13:59:47;95134.00;;;1.91;72.33
19751;BME280;4663;49.120;9.730;2023-01-16T14:05:29;95122.53;;;1.84;72.24
19751;BME280;4663;49.120;9.730;2023-01-16T14:08:27;95119.66;;;1.85;73.13
19751;BME280;4663;49.120;9.730;2023-01-16T14:11:28;95109.84;;;1.86;72.53
19751;BME280;4663;49.120;9.730;2023-01-16T14:17:07;95100.88;;;2.07;71.52
19751;BME280;4663;49.120;9.730;2023-01-16T14:19:57;95084.91;;;2.21;71.60
19751;BME280;4663;49.120;9.730;2023-01-16T14:22:26;95074.69;;;2.04;71.06
19751;BME280;4663;49.120;9.730;2023-01-16T14:24:58;95081.22;;;2.08;72.34
19751;BME280;4663;49.120;9.730;2023-01-16T14:27:40;95074.03;;;2.02;73.17
19751;BME280;4663;49.120;9.730;2023-01-16T14:30:15;95068.31;;;2.05;72.19
19751;BME280;4663;49.120;9.730;2023-01-16T14:32:46;95071.41;;;2.09;73.17
19751;BME280;4663;49.120;9.730;2023-01-16T14:35:19;95072.63;;;1.86;73.20
19751;BME280;4663;49.120;9.730;2023-01-16T14:38:04;95064.03;;;1.97;72.61
19751;BME280;4663;49.120;9.730;2023-01-16T14:43:36;95056.03;;;1.84;72.36
19751;BME280;4663;49.120;9.730;2023-01-16T14:46:32;95046.41;;;1.89;72.66
19751;BME280;4663;49.120;9.730;2023-01-16T14:49:42;95048.47;;;2.01;72.63
19751;BME280;4663;49.120;9.730;2023-01-16T14:58:20;95022.63;;;1.54;71.36
19751;BME280;4663;49.120;9.730;2023-01-16T15:00:49;95036.16;;;1.86;72.51
19751;BME280;4663;49.120;9.730;2023-01-16T15:03:21;95011.19;;;1.67;72.79
19751;BME280;4663;49.120;9.730;2023-01-16T15:05:58;95013.47;;;1.70;72.64
19751;BME280;4663;49.120;9.730;2023-01-16T15:08:33;94993.22;;;1.69;71.99
19751;BME280;4663;49.120;9.730;2023-01-16T15:11:15;95000.91;;;1.50;72.80
19751;BME280;4663;49.120;9.730;2023-01-16T15:14:09;95003.75;;;1.35;73.07
19751;BME280;4663;49.120;9.730;2023-01-16T15:16:57;94985.34;;;1.41;72.30
19751;BME280;4663;49.120;9.730;2023-01-16T15:20:22;94978.22;;;1.41;72.66
19751;BME280;4663;49.120;9.730;2023-01-16T15:23:17;94980.44;;;1.44;73.30
19751;BME280;4663;49.120;9.730;2023-01-16T15:31:08;94964.47;;;1.31;72.30
19751;BME280;4663;49.120;9.730;2023-01-16T15:33:35;94956.31;;;1.25;72.13
19751;BME280;4663;49.120;9.730;2023-01-16T15:38:51;94961.19;;;1.22;72.20
19751;BME280;4663;49.120;9.730;2023-01-16T15:41:18;94947.41;;;0.91;73.10
19751;BME280;4663;49.120;9.730;2023-01-16T15:43:45;94952.91;;;0.90;74.15
19751;BME280;4663;49.120;9.730;2023-01-16T15:46:52;94947.41;;;0.91;72.68
19751;BME280;4663;49.120;9.730;2023-01-16T15:49:30;94931.28;;;0.93;72.80
19751;BME280;4663;49.120;9.730;2023-01-16T15:52:00;94939.09;;;1.15;72.30
19751;BME280;4663;49.120;9.730;2023-01-16T15:54:26;94944.56;;;0.99;72.73
19751;BME280;4663;49.120;9.730;2023-01-16T15:56:52;94941.91;;;0.93;73.91